createdAt,value
2017-11-08T00:00:23.669Z,38.70
2017-11-08T00:01:23.630Z,40.00
2017-11-08T00:02:23.597Z,40.10
2017-11-08T00:03:23.551Z,37.90
2017-11-08T00:04:23.512Z,38.90
2017-11-08T00:05:23.474Z,38.60
2017-11-08T00:06:23.434Z,39.90
2017-11-08T00:07:23.400Z,39.30
2017-11-08T00:08:23.355Z,39.90
2017-11-08T00:09:23.321Z,40.40
2017-11-08T00:10:23.281Z,39.70
2017-11-08T00:11:23.241Z,39.60
2017-11-08T00:12:23.211Z,39.80
2017-11-08T00:13:23.166Z,39.70
2017-11-08T00:14:23.135Z,39.80
2017-11-08T00:15:23.085Z,40.40
2017-11-08T00:16:23.047Z,39.40
2017-11-08T00:17:23.009Z,39.10
2017-11-08T00:18:22.971Z,40.40
2017-11-08T00:19:22.935Z,39.90
2017-11-08T00:20:22.892Z,39.30
2017-11-08T00:21:22.855Z,38.60
2017-11-08T00:22:22.827Z,38.60
2017-11-08T00:23:22.775Z,39.70
2017-11-08T00:24:22.737Z,39.10
2017-11-08T00:25:22.705Z,41.00
2017-11-08T00:26:22.663Z,40.80
2017-11-08T00:27:22.627Z,41.00
2017-11-08T00:28:22.597Z,41.40
2017-11-08T00:29:22.573Z,40.10
2017-11-08T00:30:22.505Z,37.90
2017-11-08T00:31:22.482Z,40.90
2017-11-08T00:32:22.428Z,39.90
2017-11-08T00:33:22.398Z,41.20
2017-11-08T00:34:22.351Z,40.30
2017-11-08T00:35:22.311Z,39.70
2017-11-08T00:36:22.275Z,40.10
2017-11-08T00:37:22.233Z,37.20
2017-11-08T00:38:22.196Z,42.00
2017-11-08T00:39:22.162Z,40.30
2017-11-08T00:40:22.115Z,39.10
2017-11-08T00:41:22.075Z,37.70
2017-11-08T00:42:22.041Z,37.60
2017-11-08T00:43:21.998Z,40.60
2017-11-08T00:44:21.960Z,38.90
2017-11-08T00:45:21.926Z,38.00
2017-11-08T00:46:21.896Z,39.20
2017-11-08T00:47:21.839Z,37.00
2017-11-08T00:48:21.802Z,38.30
2017-11-08T00:49:21.761Z,37.80
2017-11-08T00:50:21.734Z,38.60
2017-11-08T00:51:21.689Z,36.90
2017-11-08T00:52:21.645Z,37.60
2017-11-08T00:53:21.608Z,37.90
2017-11-08T00:54:21.570Z,38.90
2017-11-08T00:55:21.527Z,40.70
2017-11-08T00:56:21.502Z,37.30
2017-11-08T00:57:21.462Z,36.10
2017-11-08T00:58:21.413Z,39.80
2017-11-08T00:59:21.376Z,37.30
2017-11-08T01:00:21.336Z,39.20
2017-11-08T01:01:21.302Z,36.60
2017-11-08T01:02:21.257Z,37.60
2017-11-08T01:03:21.229Z,38.40
2017-11-08T01:04:21.205Z,39.40
2017-11-08T01:05:21.143Z,35.90
2017-11-08T01:06:21.105Z,36.50
2017-11-08T01:07:21.064Z,39.60
2017-11-08T01:08:21.030Z,37.90
2017-11-08T01:09:20.995Z,36.80
2017-11-08T01:10:20.949Z,38.90
2017-11-08T01:11:20.908Z,38.00
2017-11-08T01:12:20.882Z,37.20
2017-11-08T01:13:20.830Z,38.10
2017-11-08T01:14:20.798Z,39.30
2017-11-08T01:15:20.780Z,38.50
2017-11-08T01:16:20.712Z,37.20
2017-11-08T01:17:20.697Z,38.60
2017-11-08T01:18:20.633Z,40.30
2017-11-08T01:19:20.595Z,37.90
2017-11-08T01:20:20.565Z,38.70
2017-11-08T01:21:20.529Z,37.50
2017-11-08T01:22:20.494Z,37.50
2017-11-08T01:23:20.437Z,38.40
2017-11-08T01:24:20.425Z,38.80
2017-11-08T01:25:20.362Z,39.30
2017-11-08T01:26:20.323Z,38.80
2017-11-08T01:27:20.286Z,39.30
2017-11-08T01:28:20.261Z,38.70
2017-11-08T01:29:20.206Z,38.70
2017-11-08T01:30:20.174Z,38.80
2017-11-08T01:31:20.124Z,37.70
2017-11-08T01:32:20.096Z,39.90
2017-11-08T01:33:20.056Z,38.90
2017-11-08T01:34:20.010Z,40.50
2017-11-08T01:35:19.975Z,39.40
2017-11-08T01:36:19.931Z,39.10
2017-11-08T01:37:19.898Z,40.40
2017-11-08T01:38:19.851Z,39.90
2017-11-08T01:39:19.813Z,39.20
2017-11-08T01:40:19.777Z,42.50
2017-11-08T01:41:19.739Z,41.90
2017-11-08T01:42:19.696Z,42.40
2017-11-08T01:43:19.659Z,42.60
2017-11-08T01:44:19.617Z,42.00
2017-11-08T01:45:19.581Z,41.50
2017-11-08T01:46:19.540Z,43.90
2017-11-08T01:47:19.503Z,36.80
2017-11-08T01:48:19.463Z,42.80
2017-11-08T01:49:19.420Z,41.70
2017-11-08T01:50:19.380Z,42.70
2017-11-08T01:51:19.342Z,41.40
2017-11-08T01:52:19.305Z,43.30
2017-11-08T01:53:19.263Z,42.00
2017-11-08T01:54:19.230Z,43.80
2017-11-08T01:55:19.186Z,42.50
2017-11-08T01:56:19.149Z,43.00
2017-11-08T01:57:19.107Z,42.90
2017-11-08T01:58:19.066Z,42.50
2017-11-08T01:59:19.061Z,43.40
2017-11-08T02:00:18.991Z,44.30
2017-11-08T02:01:18.949Z,43.60
2017-11-08T02:02:18.913Z,44.00
2017-11-08T02:03:18.875Z,42.90
2017-11-08T02:04:18.833Z,44.50
2017-11-08T02:05:18.789Z,44.60
2017-11-08T02:06:18.761Z,44.60
2017-11-08T02:07:18.728Z,44.30
2017-11-08T02:08:18.674Z,45.10
2017-11-08T02:09:18.635Z,43.60
2017-11-08T02:10:18.595Z,42.80
2017-11-08T02:11:18.555Z,46.20
2017-11-08T02:12:18.534Z,46.00
2017-11-08T02:13:18.485Z,44.90
2017-11-08T02:14:18.437Z,43.30
2017-11-08T02:15:18.399Z,44.40
2017-11-08T02:16:18.368Z,46.00
2017-11-08T02:17:18.320Z,44.10
2017-11-08T02:18:18.285Z,45.50
2017-11-08T02:19:18.242Z,45.60
2017-11-08T02:20:18.203Z,46.00
2017-11-08T02:21:18.161Z,45.00
2017-11-08T02:22:18.139Z,45.00
2017-11-08T02:23:18.143Z,43.90
2017-11-08T02:24:18.054Z,45.70
2017-11-08T02:25:18.018Z,46.70
2017-11-08T02:26:17.969Z,45.50
2017-11-08T02:27:17.933Z,44.80
2017-11-08T02:28:17.892Z,43.40
2017-11-08T02:29:17.847Z,44.20
2017-11-08T02:30:17.814Z,44.30
2017-11-08T02:31:17.772Z,46.00
2017-11-08T02:32:17.734Z,43.70
2017-11-08T02:33:17.693Z,43.80
2017-11-08T02:34:17.651Z,44.60
2017-11-08T02:35:17.611Z,44.00
2017-11-08T02:36:17.574Z,46.30
2017-11-08T02:37:17.534Z,46.10
2017-11-08T02:38:17.499Z,44.50
2017-11-08T02:39:17.452Z,45.10
2017-11-08T02:40:17.417Z,46.50
2017-11-08T02:41:17.374Z,43.40
2017-11-08T02:42:17.336Z,45.70
2017-11-08T02:43:17.304Z,45.30
2017-11-08T02:44:17.263Z,45.20
2017-11-08T02:45:17.217Z,47.70
2017-11-08T02:46:17.182Z,46.10
2017-11-08T02:47:17.138Z,43.90
2017-11-08T02:48:17.096Z,46.20
2017-11-08T02:49:17.057Z,47.10
2017-11-08T02:50:17.052Z,47.30
2017-11-08T02:51:16.977Z,46.00
2017-11-08T02:52:16.953Z,47.90
2017-11-08T02:53:16.899Z,48.10
2017-11-08T02:54:16.866Z,46.70
2017-11-08T02:55:16.823Z,50.50
2017-11-08T02:56:16.781Z,46.60
2017-11-08T02:57:16.749Z,48.30
2017-11-08T02:58:16.703Z,47.40
2017-11-08T02:59:16.660Z,45.80
2017-11-08T03:00:16.624Z,47.80
2017-11-08T03:01:16.582Z,47.20
2017-11-08T03:02:16.542Z,47.60
2017-11-08T03:03:16.501Z,46.70
2017-11-08T03:04:16.465Z,48.50
2017-11-08T03:05:16.432Z,46.40
2017-11-08T03:06:16.385Z,47.90
2017-11-08T03:07:16.345Z,47.60
2017-11-08T03:08:16.309Z,47.50
2017-11-08T03:09:16.283Z,50.60
2017-11-08T03:10:16.229Z,47.50
2017-11-08T03:11:16.192Z,49.60
2017-11-08T03:12:16.147Z,50.90
2017-11-08T03:13:16.112Z,48.90
2017-11-08T03:14:16.072Z,48.60
2017-11-08T03:15:16.030Z,49.00
2017-11-08T03:16:15.992Z,46.80
2017-11-08T03:17:15.955Z,48.90
2017-11-08T03:18:15.910Z,50.70
2017-11-08T03:19:15.873Z,47.50
2017-11-08T03:20:15.838Z,47.90
2017-11-08T03:21:15.802Z,48.60
2017-11-08T03:22:15.749Z,49.80
2017-11-08T03:23:15.712Z,52.10
2017-11-08T03:24:15.669Z,50.00
2017-11-08T03:25:15.633Z,50.00
2017-11-08T03:26:15.601Z,50.10
2017-11-08T03:27:15.556Z,49.50
2017-11-08T03:28:15.515Z,49.20
2017-11-08T03:29:15.474Z,51.20
2017-11-08T03:30:15.443Z,48.90
2017-11-08T03:31:15.408Z,50.50
2017-11-08T03:32:15.356Z,49.60
2017-11-08T03:33:15.316Z,51.20
2017-11-08T03:34:15.275Z,50.10
2017-11-08T03:35:15.240Z,50.60
2017-11-08T03:36:15.211Z,51.30
2017-11-08T03:37:15.164Z,49.70
2017-11-08T03:38:15.130Z,49.90
2017-11-08T03:39:15.096Z,51.40
2017-11-08T03:40:15.042Z,51.30
2017-11-08T03:41:15.001Z,50.00
2017-11-08T03:42:14.964Z,49.20
2017-11-08T03:43:14.918Z,49.80
2017-11-08T03:44:14.883Z,49.20
2017-11-08T03:45:14.843Z,47.20
2017-11-08T03:46:14.809Z,49.50
2017-11-08T03:47:14.765Z,51.00
2017-11-08T03:48:14.733Z,47.90
2017-11-08T03:49:14.681Z,48.70
2017-11-08T03:50:14.645Z,49.00
2017-11-08T03:51:14.601Z,49.00
2017-11-08T03:52:14.559Z,49.50
2017-11-08T03:53:14.533Z,48.80
2017-11-08T03:54:14.487Z,49.30
2017-11-08T03:55:14.441Z,46.90
2017-11-08T03:56:14.410Z,49.60
2017-11-08T03:57:14.367Z,48.70
2017-11-08T03:58:14.332Z,49.90
2017-11-08T03:59:14.289Z,49.40
2017-11-08T04:00:14.245Z,47.30
2017-11-08T04:01:14.206Z,47.30
2017-11-08T04:02:14.167Z,48.30
2017-11-08T04:03:14.126Z,46.20
2017-11-08T04:04:14.098Z,45.80
2017-11-08T04:05:14.046Z,45.60
2017-11-08T04:06:14.007Z,47.00
2017-11-08T04:07:13.967Z,43.60
2017-11-08T04:08:13.926Z,46.70
2017-11-08T04:09:13.891Z,44.90
2017-11-08T04:10:13.852Z,44.10
2017-11-08T04:11:13.812Z,45.00
2017-11-08T04:12:13.768Z,45.70
2017-11-08T04:13:13.729Z,44.70
2017-11-08T04:14:13.694Z,45.40
2017-11-08T04:15:13.650Z,45.40
2017-11-08T04:16:13.611Z,44.80
2017-11-08T04:17:13.573Z,45.60
2017-11-08T04:18:13.533Z,43.60
2017-11-08T04:19:13.508Z,42.10
2017-11-08T04:20:13.458Z,39.20
2017-11-08T04:21:13.418Z,44.70
2017-11-08T04:22:13.374Z,42.90
2017-11-08T04:23:13.339Z,45.30
2017-11-08T04:24:13.303Z,44.30
2017-11-08T04:25:13.256Z,43.30
2017-11-08T04:26:13.218Z,43.10
2017-11-08T04:27:13.183Z,42.80
2017-11-08T04:28:13.148Z,43.40
2017-11-08T04:29:13.101Z,46.00
2017-11-08T04:30:13.069Z,43.60
2017-11-08T04:31:13.024Z,44.00
2017-11-08T04:32:12.985Z,43.40
2017-11-08T04:33:12.945Z,43.30
2017-11-08T04:34:12.906Z,43.20
2017-11-08T04:35:12.866Z,44.20
2017-11-08T04:36:12.829Z,43.80
2017-11-08T04:37:12.787Z,44.20
2017-11-08T04:38:12.748Z,44.80
2017-11-08T04:39:12.708Z,46.00
2017-11-08T04:40:12.683Z,45.20
2017-11-08T04:41:12.651Z,44.40
2017-11-08T04:42:12.594Z,43.50
2017-11-08T04:43:12.556Z,44.60
2017-11-08T04:44:12.522Z,43.30
2017-11-08T04:45:12.481Z,43.80
2017-11-08T04:46:12.433Z,44.50
2017-11-08T04:47:12.394Z,42.70
2017-11-08T04:48:12.355Z,43.60
2017-11-08T04:49:12.323Z,43.30
2017-11-08T04:50:12.286Z,43.60
2017-11-08T04:51:12.237Z,43.70
2017-11-08T04:52:12.199Z,41.40
2017-11-08T04:53:12.159Z,44.20
2017-11-08T04:54:12.120Z,39.90
2017-11-08T04:55:12.083Z,45.50
2017-11-08T04:56:12.044Z,42.90
2017-11-08T04:57:12.005Z,44.40
2017-11-08T04:58:11.964Z,43.80
2017-11-08T04:59:11.924Z,42.60
2017-11-08T05:00:11.888Z,44.30
2017-11-08T05:01:11.866Z,43.00
2017-11-08T05:02:11.809Z,43.70
2017-11-08T05:03:11.769Z,44.30
2017-11-08T05:04:11.734Z,42.40
2017-11-08T05:05:11.691Z,42.10
2017-11-08T05:06:11.653Z,43.70
2017-11-08T05:07:11.617Z,43.90
2017-11-08T05:08:11.588Z,42.20
2017-11-08T05:09:11.537Z,42.60
2017-11-08T05:10:11.499Z,43.80
2017-11-08T05:11:11.454Z,42.80
2017-11-08T05:12:11.416Z,42.90
2017-11-08T05:13:11.385Z,44.40
2017-11-08T05:14:11.346Z,41.90
2017-11-08T05:15:11.298Z,42.90
2017-11-08T05:16:11.259Z,41.90
2017-11-08T05:17:11.222Z,43.20
2017-11-08T05:18:11.185Z,43.80
2017-11-08T05:19:11.158Z,43.70
2017-11-08T05:20:11.104Z,43.20
2017-11-08T05:21:11.066Z,42.70
2017-11-08T05:22:11.034Z,43.60
2017-11-08T05:23:10.987Z,42.40
2017-11-08T05:24:10.955Z,44.10
2017-11-08T05:25:10.914Z,43.60
2017-11-08T05:26:10.874Z,41.10
2017-11-08T05:27:10.836Z,42.90
2017-11-08T05:28:10.798Z,37.50
2017-11-08T05:29:10.756Z,42.20
2017-11-08T05:30:10.718Z,43.90
2017-11-08T05:31:10.678Z,41.50
2017-11-08T05:32:10.646Z,41.70
2017-11-08T05:33:10.608Z,41.40
2017-11-08T05:34:10.561Z,41.40
2017-11-08T05:35:10.522Z,42.30
2017-11-08T05:36:10.482Z,42.80
2017-11-08T05:37:10.453Z,40.70
2017-11-08T05:38:10.405Z,42.60
2017-11-08T05:39:10.383Z,42.10
2017-11-08T05:40:10.327Z,42.90
2017-11-08T05:41:10.286Z,42.60
2017-11-08T05:42:10.251Z,40.60
2017-11-08T05:43:10.208Z,41.30
2017-11-08T05:44:10.171Z,36.60
2017-11-08T05:45:10.129Z,40.80
2017-11-08T05:46:10.091Z,40.70
2017-11-08T05:47:10.057Z,38.80
2017-11-08T05:48:10.018Z,41.70
2017-11-08T05:49:09.974Z,41.50
2017-11-08T05:50:09.942Z,39.50
2017-11-08T05:51:09.904Z,39.20
2017-11-08T05:52:09.868Z,42.50
2017-11-08T05:53:09.817Z,42.60
2017-11-08T05:54:09.783Z,42.30
2017-11-08T05:55:09.776Z,41.50
2017-11-08T05:56:09.700Z,40.70
2017-11-08T05:57:09.688Z,42.40
2017-11-08T05:58:09.624Z,40.20
2017-11-08T05:59:09.591Z,43.20
2017-11-08T06:00:09.562Z,41.50
2017-11-08T06:01:09.505Z,42.20
2017-11-08T06:02:09.473Z,42.40
2017-11-08T06:03:09.437Z,43.50
2017-11-08T06:04:09.394Z,41.40
2017-11-08T06:05:09.348Z,41.50
2017-11-08T06:06:09.308Z,42.00
2017-11-08T06:07:09.273Z,42.60
2017-11-08T06:08:09.233Z,47.00
2017-11-08T06:09:10.374Z,44.90
2017-11-08T06:10:09.157Z,41.90
2017-11-08T06:11:09.157Z,43.90
2017-11-08T06:12:09.076Z,42.80
2017-11-08T06:13:09.036Z,43.30
2017-11-08T06:14:09.017Z,43.10
2017-11-08T06:15:08.982Z,44.00
2017-11-08T06:16:08.939Z,46.30
2017-11-08T06:17:08.884Z,46.20
2017-11-08T06:18:08.852Z,43.00
2017-11-08T06:19:08.801Z,42.50
2017-11-08T06:20:08.829Z,41.80
2017-11-08T06:21:08.719Z,46.90
2017-11-08T06:22:08.699Z,45.80
2017-11-08T06:23:08.672Z,50.00
2017-11-08T06:24:08.603Z,48.00
2017-11-08T06:25:08.562Z,44.80
2017-11-08T06:26:08.523Z,44.70
2017-11-08T06:27:08.484Z,46.30
2017-11-08T06:28:08.449Z,48.00
2017-11-08T06:29:10.103Z,44.80
2017-11-08T06:30:08.369Z,45.90
2017-11-08T06:31:08.334Z,45.40
2017-11-08T06:32:08.287Z,47.30
2017-11-08T06:33:08.253Z,48.20
2017-11-08T06:34:08.222Z,49.40
2017-11-08T06:35:08.173Z,45.70
2017-11-08T06:36:08.132Z,44.90
2017-11-08T06:37:08.106Z,43.50
2017-11-08T06:38:08.054Z,44.20
2017-11-08T06:39:08.018Z,42.80
2017-11-08T06:40:08.005Z,43.80
2017-11-08T06:41:07.934Z,44.20
2017-11-08T06:42:07.895Z,43.40
2017-11-08T06:43:07.867Z,43.30
2017-11-08T06:44:07.815Z,43.60
2017-11-08T06:45:07.792Z,43.10
2017-11-08T06:46:07.746Z,42.30
2017-11-08T06:47:07.705Z,42.90
2017-11-08T06:48:07.659Z,43.70
2017-11-08T06:49:07.620Z,42.90
2017-11-08T06:50:07.582Z,41.90
2017-11-08T06:51:07.548Z,43.70
2017-11-08T06:52:07.502Z,43.30
2017-11-08T06:53:07.474Z,39.70
2017-11-08T06:54:07.421Z,41.60
2017-11-08T06:55:07.389Z,42.10
2017-11-08T06:56:07.351Z,43.70
2017-11-08T06:57:07.340Z,45.10
2017-11-08T06:58:07.265Z,42.50
2017-11-08T06:59:07.232Z,40.60
2017-11-08T07:00:07.212Z,42.10
2017-11-08T07:01:07.155Z,44.80
2017-11-08T07:02:07.108Z,43.50
2017-11-08T07:03:07.068Z,42.10
2017-11-08T07:04:07.030Z,44.10
2017-11-08T07:05:06.993Z,40.20
2017-11-08T07:06:06.965Z,45.00
2017-11-08T07:07:06.914Z,44.10
2017-11-08T07:08:06.877Z,43.30
2017-11-08T07:09:06.830Z,45.70
2017-11-08T07:10:06.802Z,45.20
2017-11-08T07:11:06.749Z,44.10
2017-11-08T07:12:06.726Z,46.50
2017-11-08T07:13:06.672Z,45.20
2017-11-08T07:14:06.631Z,48.70
2017-11-08T07:15:06.592Z,45.80
2017-11-08T07:16:06.554Z,48.10
2017-11-08T07:17:06.516Z,46.80
2017-11-08T07:18:06.479Z,44.00
2017-11-08T07:19:06.442Z,43.00
2017-11-08T07:20:06.399Z,40.90
2017-11-08T07:21:06.356Z,42.60
2017-11-08T07:22:06.326Z,42.50
2017-11-08T07:23:06.278Z,42.80
2017-11-08T07:24:06.240Z,43.70
2017-11-08T07:25:06.203Z,40.40
2017-11-08T07:26:06.162Z,42.00
2017-11-08T07:27:06.118Z,42.90
2017-11-08T07:28:06.090Z,41.70
2017-11-08T07:29:06.047Z,40.10
2017-11-08T07:30:06.062Z,40.80
2017-11-08T07:31:05.962Z,39.30
2017-11-08T07:32:05.926Z,39.90
2017-11-08T07:33:05.888Z,39.50
2017-11-08T07:34:05.848Z,40.00
2017-11-08T07:35:05.810Z,39.90
2017-11-08T07:36:05.786Z,39.90
2017-11-08T07:37:05.738Z,39.90
2017-11-08T07:38:05.693Z,39.70
2017-11-08T07:39:05.652Z,36.90
2017-11-08T07:40:05.631Z,39.40
2017-11-08T07:41:05.582Z,38.90
2017-11-08T07:42:05.545Z,37.40
2017-11-08T07:43:05.503Z,38.80
2017-11-08T07:44:05.454Z,38.80
2017-11-08T07:45:05.433Z,41.30
2017-11-08T07:46:05.377Z,37.70
2017-11-08T07:47:05.348Z,37.20
2017-11-08T07:48:05.304Z,38.00
2017-11-08T07:49:05.282Z,34.80
2017-11-08T07:50:05.234Z,36.90
2017-11-08T07:51:05.182Z,34.40
2017-11-08T07:52:05.244Z,33.60
2017-11-08T07:53:05.102Z,35.10
2017-11-08T07:54:05.073Z,35.20
2017-11-08T07:55:05.025Z,35.50
2017-11-08T07:56:04.999Z,35.10
2017-11-08T07:57:04.952Z,34.30
2017-11-08T07:58:05.067Z,33.60
2017-11-08T07:59:04.871Z,33.80
2017-11-08T08:00:04.833Z,34.30
2017-11-08T08:01:04.791Z,33.60
2017-11-08T08:02:04.761Z,33.30
2017-11-08T08:03:04.755Z,31.70
2017-11-08T08:04:04.674Z,32.50
2017-11-08T08:05:04.636Z,32.90
2017-11-08T08:06:04.611Z,32.00
2017-11-08T08:07:04.559Z,31.70
2017-11-08T08:08:04.529Z,31.50
2017-11-08T08:09:04.480Z,30.50
2017-11-08T08:10:04.437Z,30.40
2017-11-08T08:11:04.410Z,30.20
2017-11-08T08:12:04.386Z,31.60
2017-11-08T08:13:04.328Z,30.30
2017-11-08T08:14:04.284Z,31.40
2017-11-08T08:15:04.245Z,29.80
2017-11-08T08:16:04.211Z,30.30
2017-11-08T08:17:04.185Z,31.20
2017-11-08T08:18:04.142Z,30.90
2017-11-08T08:19:04.087Z,29.50
2017-11-08T08:20:04.089Z,29.70
2017-11-08T08:21:04.011Z,31.80
2017-11-08T08:22:03.972Z,29.80
2017-11-08T08:23:03.931Z,29.90
2017-11-08T08:24:03.898Z,30.90
2017-11-08T08:25:03.919Z,29.20
2017-11-08T08:26:03.827Z,29.50
2017-11-08T08:27:03.791Z,30.00
2017-11-08T08:28:03.744Z,29.20
2017-11-08T08:29:03.781Z,30.60
2017-11-08T08:30:03.659Z,29.60
2017-11-08T08:31:04.890Z,29.90
2017-11-08T08:32:03.585Z,29.70
2017-11-08T08:33:03.554Z,28.50
2017-11-08T08:34:03.527Z,29.10
2017-11-08T08:35:03.476Z,28.20
2017-11-08T08:36:03.584Z,27.00
2017-11-08T08:37:03.440Z,26.60
2017-11-08T08:38:03.432Z,29.70
2017-11-08T08:39:03.346Z,29.50
2017-11-08T08:40:03.296Z,27.60
2017-11-08T08:41:03.235Z,26.80
2017-11-08T08:42:03.196Z,26.00
2017-11-08T08:43:03.158Z,28.40
2017-11-08T08:44:03.118Z,29.00
2017-11-08T08:45:03.094Z,28.50
2017-11-08T08:46:03.041Z,29.20
2017-11-08T08:47:03.003Z,28.10
2017-11-08T08:48:02.970Z,28.60
2017-11-08T08:49:02.937Z,29.50
2017-11-08T08:50:02.887Z,29.90
2017-11-08T08:51:02.855Z,28.70
2017-11-08T08:52:02.824Z,29.30
2017-11-08T08:53:02.781Z,26.60
2017-11-08T08:54:02.732Z,28.70
2017-11-08T08:55:02.691Z,28.80
2017-11-08T08:56:02.670Z,28.60
2017-11-08T08:57:02.610Z,27.40
2017-11-08T08:58:02.585Z,29.20
2017-11-08T08:59:02.545Z,28.70
2017-11-08T09:00:02.498Z,31.40
2017-11-08T09:01:02.458Z,31.20
2017-11-08T09:02:02.446Z,28.40
2017-11-08T09:03:02.383Z,31.20
2017-11-08T09:04:02.343Z,30.00
2017-11-08T09:05:02.299Z,30.10
2017-11-08T09:06:02.260Z,29.20
2017-11-08T09:07:02.228Z,28.70
2017-11-08T09:08:02.188Z,28.60
2017-11-08T09:09:02.151Z,28.00
2017-11-08T09:10:02.107Z,27.70
2017-11-08T09:11:02.069Z,30.20
2017-11-08T09:12:02.034Z,30.70
2017-11-08T09:13:01.992Z,30.00
2017-11-08T09:14:01.960Z,28.50
2017-11-08T09:15:01.910Z,29.70
2017-11-08T09:16:01.880Z,30.00
2017-11-08T09:17:01.841Z,29.20
2017-11-08T09:18:01.804Z,29.50
2017-11-08T09:19:01.755Z,30.30
2017-11-08T09:20:01.717Z,30.00
2017-11-08T09:21:01.686Z,30.60
2017-11-08T09:22:02.772Z,30.30
2017-11-08T09:23:01.613Z,30.40
2017-11-08T09:24:01.560Z,30.40
2017-11-08T09:25:01.540Z,29.40
2017-11-08T09:26:01.490Z,30.00
2017-11-08T09:27:01.454Z,22.70
2017-11-08T09:28:01.410Z,27.40
2017-11-08T09:29:01.368Z,30.40
2017-11-08T09:30:01.344Z,29.40
2017-11-08T09:31:01.292Z,28.50
2017-11-08T09:32:01.253Z,32.80
2017-11-08T09:33:01.212Z,30.40
2017-11-08T09:34:01.180Z,32.00
2017-11-08T09:35:01.135Z,28.20
2017-11-08T09:36:01.095Z,29.70
2017-11-08T09:37:01.062Z,30.20
2017-11-08T09:38:01.020Z,29.50
2017-11-08T09:39:00.978Z,29.90
2017-11-08T09:40:00.945Z,32.30
2017-11-08T09:41:00.902Z,28.90
2017-11-08T09:42:00.867Z,31.30
2017-11-08T09:43:00.827Z,30.00
2017-11-08T09:44:00.789Z,31.80
2017-11-08T09:45:00.753Z,32.10
2017-11-08T09:46:00.709Z,32.10
2017-11-08T09:47:00.720Z,31.50
2017-11-08T09:48:00.647Z,30.60
2017-11-08T09:49:00.599Z,32.30
2017-11-08T09:50:00.554Z,30.90
2017-11-08T09:51:00.518Z,31.80
2017-11-08T09:52:00.490Z,31.00
2017-11-08T09:53:00.442Z,31.70
2017-11-08T09:54:00.400Z,30.80
2017-11-08T09:55:00.362Z,33.40
2017-11-08T09:56:00.324Z,31.50
2017-11-08T09:57:00.298Z,31.80
2017-11-08T09:58:00.252Z,32.10
2017-11-08T09:59:00.216Z,31.70
2017-11-08T10:00:00.169Z,28.80
2017-11-08T10:01:00.140Z,31.90
2017-11-08T10:02:00.093Z,27.60
2017-11-08T10:03:00.053Z,30.40
2017-11-08T10:04:00.026Z,31.30
2017-11-08T10:04:59.978Z,29.80
2017-11-08T10:05:59.952Z,30.80
2017-11-08T10:06:59.900Z,31.40
2017-11-08T10:07:59.915Z,30.60
2017-11-08T10:08:59.873Z,31.00
2017-11-08T10:09:59.792Z,31.30
2017-11-08T10:10:59.754Z,31.90
2017-11-08T10:11:59.715Z,30.70
2017-11-08T10:12:59.704Z,32.30
2017-11-08T10:13:59.634Z,31.60
2017-11-08T10:14:59.594Z,29.30
2017-11-08T10:15:59.555Z,29.40
2017-11-08T10:16:59.522Z,33.10
2017-11-08T10:17:59.484Z,30.20
2017-11-08T10:18:59.438Z,32.60
2017-11-08T10:19:59.403Z,31.40
2017-11-08T10:20:59.373Z,30.60
2017-11-08T10:21:59.341Z,32.00
2017-11-08T10:22:59.294Z,32.50
2017-11-08T10:23:59.256Z,34.00
2017-11-08T10:24:59.219Z,29.90
2017-11-08T10:25:59.181Z,32.20
2017-11-08T10:26:59.140Z,32.70
2017-11-08T10:27:59.127Z,33.60
2017-11-08T10:28:59.062Z,32.70
2017-11-08T10:29:59.021Z,33.00
2017-11-08T10:30:58.986Z,31.60
2017-11-08T10:31:58.945Z,31.70
2017-11-08T10:32:58.905Z,29.40
2017-11-08T10:33:58.867Z,30.70
2017-11-08T10:34:58.861Z,22.40
2017-11-08T10:35:58.793Z,27.40
2017-11-08T10:36:58.755Z,30.60
2017-11-08T10:37:58.714Z,29.90
2017-11-08T10:38:58.678Z,30.50
2017-11-08T10:39:58.642Z,29.80
2017-11-08T10:40:58.601Z,26.50
2017-11-08T10:41:58.570Z,28.60
2017-11-08T10:42:58.502Z,33.40
2017-11-08T10:43:58.453Z,32.20
2017-11-08T10:44:58.422Z,29.90
2017-11-08T10:45:58.382Z,29.80
2017-11-08T10:46:58.332Z,29.70
2017-11-08T10:47:58.358Z,29.50
2017-11-08T10:48:58.269Z,29.10
2017-11-08T10:49:58.229Z,29.90
2017-11-08T10:50:58.183Z,30.40
2017-11-08T10:51:58.145Z,29.90
2017-11-08T10:52:58.106Z,30.30
2017-11-08T10:53:58.071Z,31.80
2017-11-08T10:54:58.030Z,32.60
2017-11-08T10:55:57.998Z,33.00
2017-11-08T10:56:57.952Z,46.40
2017-11-08T10:57:57.921Z,53.20
2017-11-08T10:58:57.871Z,37.10
2017-11-08T10:59:57.835Z,30.60
2017-11-08T11:00:57.802Z,37.50
2017-11-08T11:01:57.763Z,36.30
2017-11-08T11:02:57.726Z,36.50
2017-11-08T11:03:57.697Z,32.00
2017-11-08T11:04:57.651Z,30.60
2017-11-08T11:05:57.614Z,29.10
2017-11-08T11:06:57.572Z,34.10
2017-11-08T11:07:57.537Z,38.60
2017-11-08T11:08:57.512Z,34.80
2017-11-08T11:09:57.465Z,32.50
2017-11-08T11:10:57.422Z,26.60
2017-11-08T11:11:57.391Z,28.30
2017-11-08T11:12:57.359Z,29.60
2017-11-08T11:13:57.338Z,29.20
2017-11-08T11:14:57.301Z,38.00
2017-11-08T11:15:57.245Z,34.30
2017-11-08T11:16:57.198Z,32.60
2017-11-08T11:17:57.158Z,30.60
2017-11-08T11:18:57.140Z,32.50
2017-11-08T11:19:57.079Z,30.50
2017-11-08T11:20:57.043Z,30.60
2017-11-08T11:21:57.011Z,41.40
2017-11-08T11:22:56.985Z,37.40
2017-11-08T11:23:56.973Z,34.00
2017-11-08T11:24:56.892Z,34.70
2017-11-08T11:25:56.858Z,29.10
2017-11-08T11:26:56.836Z,30.40
2017-11-08T11:27:56.795Z,30.20
2017-11-08T11:28:56.749Z,30.10
2017-11-08T11:29:56.703Z,30.20
2017-11-08T11:30:56.677Z,29.80
2017-11-08T11:31:56.629Z,29.40
2017-11-08T11:32:56.591Z,28.90
2017-11-08T11:33:56.557Z,31.00
2017-11-08T11:34:56.521Z,29.20
2017-11-08T11:35:56.489Z,30.20
2017-11-08T11:36:56.448Z,30.60
2017-11-08T11:37:56.402Z,30.80
2017-11-08T11:38:56.374Z,30.40
2017-11-08T11:39:56.327Z,29.50
2017-11-08T11:40:56.290Z,29.60
2017-11-08T11:41:56.253Z,29.70
2017-11-08T11:42:56.219Z,28.70
2017-11-08T11:43:56.182Z,29.50
2017-11-08T11:44:56.147Z,27.50
2017-11-08T11:45:56.103Z,31.00
2017-11-08T11:46:56.065Z,30.30
2017-11-08T11:47:56.026Z,28.30
2017-11-08T11:48:55.988Z,30.30
2017-11-08T11:49:55.950Z,30.60
2017-11-08T11:50:55.913Z,30.60
2017-11-08T11:51:55.877Z,28.50
2017-11-08T11:52:55.843Z,32.10
2017-11-08T11:53:55.806Z,30.50
2017-11-08T11:54:55.773Z,29.20
2017-11-08T11:55:55.736Z,30.60
2017-11-08T11:56:55.698Z,31.10
2017-11-08T11:57:55.647Z,31.30
2017-11-08T11:58:55.610Z,31.00
2017-11-08T11:59:55.577Z,30.40
2017-11-08T12:00:55.544Z,31.60
2017-11-08T12:01:55.498Z,30.30
2017-11-08T12:02:55.467Z,31.70
2017-11-08T12:03:55.433Z,29.70
2017-11-08T12:04:55.385Z,31.10
2017-11-08T12:05:55.352Z,32.20
2017-11-08T12:06:55.308Z,36.60
2017-11-08T12:07:55.271Z,36.00
2017-11-08T12:08:55.234Z,33.90
2017-11-08T12:09:55.197Z,29.70
2017-11-08T12:10:55.165Z,31.50
2017-11-08T12:11:55.125Z,30.80
2017-11-08T12:12:55.093Z,30.10
2017-11-08T12:13:55.063Z,30.90
2017-11-08T12:14:55.030Z,29.80
2017-11-08T12:15:54.977Z,29.30
2017-11-08T12:16:54.935Z,32.40
2017-11-08T12:17:54.899Z,31.70
2017-11-08T12:18:54.858Z,30.60
2017-11-08T12:19:54.824Z,31.00
2017-11-08T12:20:54.784Z,31.00
2017-11-08T12:21:54.754Z,32.40
2017-11-08T12:22:54.708Z,31.20
2017-11-08T12:23:54.677Z,31.10
2017-11-08T12:24:54.634Z,31.00
2017-11-08T12:25:54.597Z,31.20
2017-11-08T12:26:54.562Z,29.20
2017-11-08T12:27:54.531Z,28.60
2017-11-08T12:28:54.490Z,30.70
2017-11-08T12:29:54.448Z,30.20
2017-11-08T12:30:54.419Z,29.20
2017-11-08T12:31:54.373Z,28.10
2017-11-08T12:32:54.335Z,29.60
2017-11-08T12:33:54.304Z,31.00
2017-11-08T12:34:54.259Z,31.10
2017-11-08T12:35:54.226Z,30.80
2017-11-08T12:36:54.183Z,30.10
2017-11-08T12:37:54.161Z,31.00
2017-11-08T12:38:54.117Z,31.50
2017-11-08T12:39:54.068Z,31.70
2017-11-08T12:40:54.049Z,32.20
2017-11-08T12:41:54.003Z,31.40
2017-11-08T12:42:53.957Z,29.90
2017-11-08T12:43:53.925Z,31.40
2017-11-08T12:44:53.884Z,31.90
2017-11-08T12:45:53.857Z,31.70
2017-11-08T12:46:53.813Z,32.20
2017-11-08T12:47:53.770Z,31.90
2017-11-08T12:48:53.731Z,32.90
2017-11-08T12:49:53.696Z,33.80
2017-11-08T12:50:53.659Z,31.90
2017-11-08T12:51:53.620Z,33.90